createdAt,value
2022-12-01T00:01:55.337Z,5.44
2022-12-01T00:04:21.632Z,5.46
2022-12-01T00:06:48.926Z,5.39
2022-12-01T00:09:19.429Z,5.33
2022-12-01T00:11:46.037Z,5.32
2022-12-01T00:14:12.260Z,5.26
2022-12-01T00:16:38.566Z,5.27
2022-12-01T00:19:04.735Z,5.22
2022-12-01T00:21:30.856Z,5.25
2022-12-01T00:23:57.039Z,5.17
2022-12-01T00:26:23.318Z,5.20
2022-12-01T00:28:49.477Z,5.16
2022-12-01T00:31:15.701Z,5.13
2022-12-01T00:33:42.216Z,5.17
2022-12-01T00:36:08.411Z,5.13
2022-12-01T00:38:34.620Z,5.13
2022-12-01T00:41:00.821Z,5.17
2022-12-01T00:43:26.985Z,5.15
2022-12-01T00:45:53.238Z,5.15
2022-12-01T00:48:19.511Z,5.14
2022-12-01T00:50:45.719Z,5.10
2022-12-01T00:53:12.958Z,5.10
2022-12-01T00:55:39.163Z,5.08
2022-12-01T00:58:05.391Z,5.05
2022-12-01T01:00:31.622Z,5.08
2022-12-01T01:02:57.894Z,5.09
2022-12-01T01:05:24.153Z,5.14
2022-12-01T01:07:50.406Z,5.09
2022-12-01T01:10:16.632Z,5.10
2022-12-01T01:12:42.878Z,5.10
2022-12-01T01:15:09.207Z,5.10
2022-12-01T01:17:35.331Z,5.04
2022-12-01T01:20:01.555Z,5.08
2022-12-01T01:22:27.713Z,5.09
2022-12-01T01:24:54.085Z,5.03
2022-12-01T01:27:20.314Z,5.04
2022-12-01T01:29:46.830Z,5.04
2022-12-01T01:32:13.226Z,5.00
2022-12-01T01:34:39.437Z,5.04
2022-12-01T01:37:05.599Z,5.02
2022-12-01T01:39:31.984Z,5.03
2022-12-01T01:41:58.181Z,4.96
2022-12-01T01:44:24.588Z,4.96
2022-12-01T01:46:50.815Z,5.01
2022-12-01T01:49:17.002Z,4.97
2022-12-01T01:51:45.602Z,5.03
2022-12-01T01:54:11.812Z,4.99
2022-12-01T01:56:37.969Z,4.98
2022-12-01T01:59:04.236Z,4.96
2022-12-01T02:01:30.468Z,4.95
2022-12-01T02:03:56.659Z,4.94
2022-12-01T02:06:23.010Z,4.92
2022-12-01T02:08:49.373Z,4.93
2022-12-01T02:11:15.692Z,4.92
2022-12-01T02:13:41.871Z,4.97
2022-12-01T02:16:08.118Z,4.90
2022-12-01T02:18:34.627Z,4.91
2022-12-01T02:21:00.872Z,4.92
2022-12-01T02:23:27.363Z,4.91
2022-12-01T02:25:53.588Z,4.97
2022-12-01T02:28:23.105Z,4.92
2022-12-01T02:30:49.498Z,4.98
2022-12-01T02:33:15.728Z,5.02
2022-12-01T02:35:41.948Z,4.96
2022-12-01T02:38:08.138Z,4.89
2022-12-01T02:40:34.456Z,4.93
2022-12-01T02:43:00.931Z,4.97
2022-12-01T02:45:27.163Z,4.91
2022-12-01T02:47:53.521Z,4.93
2022-12-01T02:50:19.967Z,4.91
2022-12-01T02:52:46.192Z,4.93
2022-12-01T02:55:12.647Z,4.96
2022-12-01T02:57:38.996Z,4.90
2022-12-01T03:00:05.341Z,4.90
2022-12-01T03:02:31.785Z,4.89
2022-12-01T03:05:00.825Z,4.87
2022-12-01T03:07:27.338Z,4.90
2022-12-01T03:09:53.590Z,4.92
2022-12-01T03:12:19.781Z,4.99
2022-12-01T03:14:45.985Z,5.00
2022-12-01T03:17:12.113Z,4.97
2022-12-01T03:19:38.274Z,4.93
2022-12-01T03:22:04.430Z,4.89
2022-12-01T03:24:30.556Z,4.96
2022-12-01T03:26:56.721Z,4.96
2022-12-01T03:29:22.878Z,4.92
2022-12-01T03:31:49.139Z,4.93
2022-12-01T03:39:40.742Z,4.87
2022-12-01T03:42:06.912Z,4.87
2022-12-01T03:44:33.110Z,4.79
2022-12-01T03:46:59.290Z,4.76
2022-12-01T03:49:25.475Z,4.77
2022-12-01T03:51:51.586Z,4.74
2022-12-01T03:54:17.716Z,4.73
2022-12-01T03:56:43.872Z,4.71
2022-12-01T03:59:10.027Z,4.68
2022-12-01T04:01:36.241Z,4.66
2022-12-01T04:04:02.409Z,4.76
2022-12-01T04:06:28.586Z,4.72
2022-12-01T04:08:54.744Z,4.67
2022-12-01T04:11:20.859Z,4.66
2022-12-01T04:13:47.076Z,4.67
2022-12-01T04:16:13.351Z,4.63
2022-12-01T04:18:39.519Z,4.56
2022-12-01T04:21:05.634Z,4.65
2022-12-01T04:23:31.815Z,4.60
2022-12-01T04:25:57.996Z,4.54
2022-12-01T04:28:24.196Z,4.53
2022-12-01T04:30:50.319Z,4.52
2022-12-01T04:33:16.516Z,4.60
2022-12-01T04:35:42.649Z,4.60
2022-12-01T04:38:08.793Z,4.57
2022-12-01T04:40:34.946Z,4.62
2022-12-01T04:43:01.130Z,4.61
2022-12-01T04:45:27.255Z,4.63
2022-12-01T04:47:53.416Z,4.69
2022-12-01T04:50:19.557Z,4.57
2022-12-01T04:52:45.709Z,4.54
2022-12-01T04:55:11.876Z,4.43
2022-12-01T04:57:38.015Z,4.54
2022-12-01T05:00:04.183Z,4.55
2022-12-01T05:02:30.392Z,4.56
2022-12-01T05:04:56.662Z,4.62
2022-12-01T05:07:22.861Z,4.62
2022-12-01T05:09:49.227Z,4.64
2022-12-01T05:12:15.650Z,4.62
2022-12-01T05:14:41.866Z,4.64
2022-12-01T05:17:08.027Z,4.59
2022-12-01T05:19:34.170Z,4.59
2022-12-01T05:22:00.320Z,4.58
2022-12-01T05:24:26.481Z,4.53
2022-12-01T05:26:52.630Z,4.52
2022-12-01T05:29:18.741Z,4.49
2022-12-01T05:31:45.006Z,4.48
2022-12-01T05:34:11.193Z,4.39
2022-12-01T05:36:37.334Z,4.38
2022-12-01T05:39:03.491Z,4.36
2022-12-01T05:41:29.653Z,4.33
2022-12-01T05:43:55.840Z,4.26
2022-12-01T05:46:22.136Z,4.27
2022-12-01T05:48:48.376Z,4.19
2022-12-01T05:51:14.478Z,4.21
2022-12-01T05:53:40.607Z,4.23
2022-12-01T05:56:06.758Z,4.23
2022-12-01T05:58:32.913Z,4.25
2022-12-01T06:00:59.059Z,4.26
2022-12-01T06:03:25.172Z,4.27
2022-12-01T06:05:51.288Z,4.26
2022-12-01T06:08:20.228Z,4.32
2022-12-01T06:10:46.410Z,4.35
2022-12-01T06:13:12.601Z,4.40
2022-12-01T06:15:38.794Z,4.39
2022-12-01T06:18:04.956Z,4.39
2022-12-01T06:20:31.113Z,4.42
2022-12-01T06:22:57.237Z,4.43
2022-12-01T06:25:23.404Z,4.39
2022-12-01T06:27:49.511Z,4.50
2022-12-01T06:30:15.692Z,4.38
2022-12-01T06:32:41.829Z,4.47
2022-12-01T06:35:07.988Z,4.43
2022-12-01T06:37:34.183Z,4.40
2022-12-01T06:40:00.302Z,4.50
2022-12-01T06:42:26.476Z,4.51
2022-12-01T06:44:52.626Z,4.55
2022-12-01T06:47:18.784Z,4.58
2022-12-01T06:49:44.980Z,4.59
2022-12-01T06:52:11.149Z,4.57
2022-12-01T06:54:37.341Z,4.53
2022-12-01T06:57:03.516Z,4.60
2022-12-01T06:59:30.029Z,4.56
2022-12-01T07:01:56.675Z,4.63
2022-12-01T07:04:22.894Z,4.57
2022-12-01T07:06:49.114Z,4.61
2022-12-01T07:09:15.333Z,4.59
2022-12-01T07:11:41.658Z,4.59
2022-12-01T07:14:07.824Z,4.56
2022-12-01T07:16:34.052Z,4.57
2022-12-01T07:19:00.273Z,4.57
2022-12-01T07:21:26.500Z,4.52
2022-12-01T07:23:52.629Z,4.51
2022-12-01T07:26:18.754Z,4.48
2022-12-01T07:28:44.940Z,4.49
2022-12-01T07:31:11.192Z,4.47
2022-12-01T07:33:37.445Z,4.49
2022-12-01T07:36:03.562Z,4.55
2022-12-01T07:38:29.782Z,4.49
2022-12-01T07:40:55.934Z,4.50
2022-12-01T07:43:22.122Z,4.48
2022-12-01T07:45:48.360Z,4.59
2022-12-01T07:48:14.505Z,4.58
2022-12-01T07:50:40.679Z,4.57
2022-12-01T07:53:06.878Z,4.54
2022-12-01T07:55:33.057Z,4.58
2022-12-01T07:57:59.219Z,4.54
2022-12-01T08:00:25.364Z,4.53
2022-12-01T08:02:51.627Z,4.59
2022-12-01T08:05:17.821Z,4.57
2022-12-01T08:07:44.045Z,4.57
2022-12-01T08:10:10.274Z,4.59
2022-12-01T08:12:36.391Z,4.64
2022-12-01T08:15:02.537Z,4.64
2022-12-01T08:17:28.752Z,4.66
2022-12-01T08:19:55.045Z,4.66
2022-12-01T08:22:21.542Z,4.64
2022-12-01T08:24:47.742Z,4.63
2022-12-01T08:27:13.864Z,4.68
2022-12-01T08:29:40.002Z,4.67
2022-12-01T08:32:06.142Z,4.69
2022-12-01T08:34:32.337Z,4.72
2022-12-01T08:36:58.533Z,4.74
2022-12-01T08:39:24.706Z,4.73
2022-12-01T08:41:50.824Z,4.67
2022-12-01T08:44:17.217Z,4.76
2022-12-01T08:46:43.454Z,4.76
2022-12-01T08:49:09.697Z,4.77
2022-12-01T08:51:35.821Z,4.76
2022-12-01T08:54:01.985Z,4.78
2022-12-01T08:56:28.125Z,4.80
2022-12-01T08:58:54.255Z,4.85
2022-12-01T09:01:20.475Z,4.85
2022-12-01T09:03:46.746Z,4.84
2022-12-01T09:06:12.892Z,4.90
2022-12-01T09:08:39.063Z,4.90
2022-12-01T09:11:05.227Z,4.91
2022-12-01T09:13:33.578Z,4.95
2022-12-01T09:15:59.765Z,4.91
2022-12-01T09:18:26.002Z,4.90
2022-12-01T09:20:52.174Z,4.93
2022-12-01T09:23:18.323Z,4.94
2022-12-01T09:25:44.459Z,4.91
2022-12-01T09:28:10.660Z,4.93
2022-12-01T09:30:36.834Z,4.95
2022-12-01T09:33:03.027Z,4.91
2022-12-01T09:35:29.232Z,4.98
2022-12-01T09:37:56.797Z,5.05
2022-12-01T09:40:22.963Z,5.04
2022-12-01T09:42:49.127Z,5.00
2022-12-01T09:45:15.298Z,5.03
2022-12-01T09:47:41.628Z,5.01
2022-12-01T09:50:07.794Z,5.12
2022-12-01T09:52:33.922Z,5.17
2022-12-01T09:55:00.112Z,5.21
2022-12-01T09:57:26.347Z,5.25
2022-12-01T09:59:52.560Z,5.23
2022-12-01T10:02:18.804Z,5.16
2022-12-01T10:04:45.025Z,5.17
2022-12-01T10:07:11.280Z,5.13
2022-12-01T10:09:37.423Z,5.19
2022-12-01T10:12:03.636Z,5.17
2022-12-01T10:14:29.918Z,5.14
2022-12-01T10:16:56.051Z,5.19
2022-12-01T10:19:22.235Z,5.27
2022-12-01T10:21:48.378Z,5.28
2022-12-01T10:24:14.500Z,5.28
2022-12-01T10:26:40.673Z,5.27
2022-12-01T10:29:06.806Z,5.28
2022-12-01T10:31:32.990Z,5.29
2022-12-01T10:33:59.148Z,5.39
2022-12-01T10:36:25.275Z,5.47
2022-12-01T10:38:51.496Z,5.50
2022-12-01T10:41:17.624Z,5.54
2022-12-01T10:43:43.775Z,5.60
2022-12-01T10:46:10.021Z,5.60
2022-12-01T10:48:36.207Z,5.67
2022-12-01T10:51:02.419Z,5.79
2022-12-01T10:53:28.562Z,5.83
2022-12-01T10:55:54.749Z,5.80
2022-12-01T10:58:20.875Z,5.95
2022-12-01T11:01:02.632Z,5.87
2022-12-01T11:03:29.154Z,5.72
2022-12-01T11:05:55.519Z,5.70
2022-12-01T11:08:21.682Z,5.68
2022-12-01T11:10:47.843Z,5.80
2022-12-01T11:13:14.068Z,5.83
2022-12-01T11:15:40.196Z,5.92
2022-12-01T11:18:06.394Z,5.85
2022-12-01T11:20:32.691Z,5.80
2022-12-01T11:22:58.958Z,5.74
2022-12-01T11:25:25.110Z,5.79
2022-12-01T11:27:51.265Z,5.88
2022-12-01T11:30:17.481Z,5.97
2022-12-01T11:32:43.628Z,5.93
2022-12-01T11:35:09.837Z,5.94
2022-12-01T11:37:35.979Z,5.97
2022-12-01T11:40:02.112Z,5.89
2022-12-01T11:42:28.287Z,5.91
2022-12-01T11:44:54.466Z,5.96
2022-12-01T11:47:24.109Z,5.99
2022-12-01T11:49:50.823Z,5.95
2022-12-01T11:52:17.118Z,5.94
2022-12-01T11:54:43.558Z,5.97
2022-12-01T11:57:33.286Z,6.05
2022-12-01T11:59:55.967Z,5.99
2022-12-01T12:02:22.181Z,6.03
2022-12-01T12:04:48.391Z,6.12
2022-12-01T12:07:14.543Z,6.15
2022-12-01T12:09:46.023Z,6.16
2022-12-01T12:12:12.179Z,6.13
2022-12-01T12:14:38.388Z,6.08
2022-12-01T12:17:04.564Z,5.96
2022-12-01T12:19:34.360Z,5.97
2022-12-01T12:22:11.559Z,5.98
2022-12-01T12:24:37.712Z,6.01
2022-12-01T12:27:03.848Z,5.97
2022-12-01T12:29:30.037Z,5.97
2022-12-01T12:31:56.260Z,6.03
2022-12-01T12:34:22.498Z,6.00
2022-12-01T12:36:48.694Z,5.98
2022-12-01T12:39:16.806Z,5.95
2022-12-01T12:41:43.338Z,5.97
2022-12-01T12:44:09.482Z,5.97
2022-12-01T12:46:35.823Z,6.11
2022-12-01T12:51:48.168Z,5.96
2022-12-01T12:54:14.445Z,5.93
2022-12-01T12:56:40.593Z,5.83
2022-12-01T12:59:06.731Z,5.83
2022-12-01T13:01:33.021Z,5.75
2022-12-01T13:03:59.259Z,5.78
2022-12-01T13:06:25.434Z,5.90
2022-12-01T13:08:51.646Z,5.88
2022-12-01T13:11:17.870Z,5.88
2022-12-01T13:13:44.048Z,5.95
2022-12-01T13:16:10.290Z,6.03
2022-12-01T13:18:36.576Z,5.97
2022-12-01T13:21:02.868Z,6.01
2022-12-01T13:23:29.061Z,6.01
2022-12-01T13:25:55.247Z,5.96
2022-12-01T13:28:21.444Z,6.04
2022-12-01T13:30:47.639Z,5.98
2022-12-01T13:33:13.804Z,6.04
2022-12-01T13:35:39.967Z,6.04
2022-12-01T13:38:06.143Z,6.10
2022-12-01T13:40:32.271Z,6.05
2022-12-01T13:42:58.435Z,5.99
2022-12-01T13:45:24.641Z,6.01
2022-12-01T13:47:50.790Z,5.93
2022-12-01T13:50:16.951Z,5.83
2022-12-01T13:52:43.114Z,5.81
2022-12-01T13:55:09.254Z,5.76
2022-12-01T13:57:35.485Z,5.85
2022-12-01T14:00:01.647Z,5.76
2022-12-01T14:02:27.953Z,5.78
2022-12-01T14:04:54.250Z,5.66
2022-12-01T14:07:20.527Z,5.61
2022-12-01T14:09:46.743Z,5.55
2022-12-01T14:12:12.951Z,5.50
2022-12-01T14:14:39.085Z,5.46
2022-12-01T14:17:05.272Z,5.35
2022-12-01T14:19:31.499Z,5.32
2022-12-01T14:21:57.709Z,5.24
2022-12-01T14:24:23.917Z,5.22
2022-12-01T14:26:50.114Z,5.21
2022-12-01T14:29:16.314Z,5.20
2022-12-01T14:31:42.457Z,5.21
2022-12-01T14:34:08.694Z,5.20
2022-12-01T14:36:34.863Z,5.18
2022-12-01T14:39:01.032Z,5.15
2022-12-01T14:41:27.188Z,5.13
2022-12-01T14:43:53.376Z,5.08
2022-12-01T14:46:19.657Z,5.02
2022-12-01T14:48:45.811Z,4.99
2022-12-01T14:51:11.998Z,4.97
2022-12-01T14:53:38.130Z,4.96
2022-12-01T14:56:04.331Z,4.93
2022-12-01T14:58:30.509Z,4.87
2022-12-01T15:00:56.771Z,4.86
2022-12-01T15:03:26.430Z,4.93
2022-12-01T15:05:55.223Z,4.88
2022-12-01T15:11:11.074Z,4.74
2022-12-01T15:13:37.522Z,4.74
2022-12-01T15:16:03.795Z,4.74
2022-12-01T15:18:30.047Z,4.68
2022-12-01T15:20:56.223Z,4.64
2022-12-01T15:23:22.388Z,4.55
2022-12-01T15:25:48.548Z,4.41
2022-12-01T15:28:14.717Z,4.44
2022-12-01T15:30:40.908Z,4.36
2022-12-01T15:33:07.111Z,4.35
2022-12-01T15:35:33.296Z,4.31
2022-12-01T15:37:59.509Z,4.09
2022-12-01T15:41:06.180Z,4.25
2022-12-01T15:43:11.791Z,4.21
2022-12-01T15:45:37.998Z,4.24
2022-12-01T15:48:04.256Z,4.31
2022-12-01T15:50:30.404Z,4.36
2022-12-01T15:52:56.528Z,4.42
2022-12-01T15:55:22.687Z,4.57
2022-12-01T15:57:48.846Z,4.59
2022-12-01T16:00:15.018Z,4.61
2022-12-01T16:02:41.251Z,4.68
2022-12-01T16:05:07.519Z,4.68
2022-12-01T16:08:04.528Z,4.71
2022-12-01T16:10:19.860Z,4.74
2022-12-01T16:12:46.080Z,4.76
2022-12-01T16:15:12.265Z,4.79
2022-12-01T16:17:38.445Z,4.84
2022-12-01T16:20:04.616Z,4.84
2022-12-01T16:22:30.771Z,4.85
2022-12-01T16:24:56.932Z,4.81
2022-12-01T16:27:23.107Z,4.80
2022-12-01T16:29:49.342Z,4.89
2022-12-01T16:32:22.649Z,4.86
2022-12-01T16:34:48.850Z,4.78
2022-12-01T16:37:15.036Z,4.78
2022-12-01T16:39:41.234Z,4.77
2022-12-01T16:42:07.495Z,4.76
2022-12-01T16:44:33.733Z,4.78
2022-12-01T16:46:59.949Z,4.78
2022-12-01T16:49:26.095Z,4.76
2022-12-01T16:51:56.893Z,4.75
2022-12-01T16:54:23.548Z,4.75
2022-12-01T16:56:49.699Z,4.70
2022-12-01T16:59:15.913Z,4.60
2022-12-01T17:01:42.156Z,4.52
2022-12-01T17:04:08.374Z,4.49
2022-12-01T17:06:34.588Z,4.40
2022-12-01T17:09:00.757Z,4.42
2022-12-01T17:11:26.970Z,4.38
2022-12-01T17:13:54.146Z,4.41
2022-12-01T17:16:20.381Z,4.42
2022-12-01T17:18:46.597Z,4.42
2022-12-01T17:21:12.790Z,4.46
2022-12-01T17:23:38.950Z,4.46
2022-12-01T17:26:05.157Z,4.46
2022-12-01T17:28:31.320Z,4.49
2022-12-01T17:30:57.543Z,4.47
2022-12-01T17:33:23.750Z,4.42
2022-12-01T17:35:49.895Z,4.40
2022-12-01T17:38:16.034Z,4.45
2022-12-01T17:40:42.209Z,4.51
2022-12-01T17:43:08.417Z,4.50
2022-12-01T17:45:34.629Z,4.46
2022-12-01T17:48:00.786Z,4.46
2022-12-01T17:50:26.990Z,4.49
2022-12-01T17:52:53.225Z,4.57
2022-12-01T17:55:19.342Z,4.61
2022-12-01T17:57:45.475Z,4.64
2022-12-01T18:00:11.676Z,4.62
2022-12-01T18:02:37.878Z,4.64
2022-12-01T18:05:04.121Z,4.68
2022-12-01T18:07:30.441Z,4.64
2022-12-01T18:09:56.665Z,4.63
2022-12-01T18:12:22.839Z,4.65
2022-12-01T18:14:49.329Z,4.71
2022-12-01T18:17:15.636Z,4.73
2022-12-01T18:19:41.794Z,4.76
2022-12-01T18:22:08.015Z,4.76
2022-12-01T18:24:34.180Z,4.80
2022-12-01T18:27:00.386Z,4.79
2022-12-01T18:29:26.591Z,4.76
2022-12-01T18:31:52.811Z,4.83
2022-12-01T18:34:22.030Z,4.78
2022-12-01T18:36:48.265Z,4.78
2022-12-01T18:39:14.469Z,4.79
2022-12-01T18:41:40.649Z,4.78
2022-12-01T18:44:06.807Z,4.82
2022-12-01T18:46:33.021Z,4.83
2022-12-01T18:48:59.245Z,4.81
2022-12-01T18:51:25.491Z,4.79
2022-12-01T18:53:52.835Z,4.81
2022-12-01T18:56:19.893Z,4.83
2022-12-01T18:58:46.183Z,4.78
2022-12-01T19:01:12.400Z,4.78
2022-12-01T19:03:38.701Z,4.78
2022-12-01T19:06:04.897Z,4.79
2022-12-01T19:08:31.052Z,4.81
2022-12-01T19:10:57.249Z,4.76
2022-12-01T19:13:23.850Z,4.74
2022-12-01T19:15:50.093Z,4.75
2022-12-01T19:18:16.322Z,4.78
2022-12-01T19:20:42.539Z,4.72
2022-12-01T19:23:08.694Z,4.70
2022-12-01T19:25:34.934Z,4.70
2022-12-01T19:28:01.098Z,4.71
2022-12-01T19:30:27.319Z,4.75
2022-12-01T19:32:53.522Z,4.78
2022-12-01T19:35:19.709Z,4.76
2022-12-01T19:37:45.873Z,4.75
2022-12-01T19:40:12.093Z,4.75
2022-12-01T19:42:38.281Z,4.74
2022-12-01T19:45:04.503Z,4.73
2022-12-01T19:47:30.665Z,4.71
2022-12-01T19:49:56.883Z,4.70
2022-12-01T19:52:23.122Z,4.70
2022-12-01T19:54:49.737Z,4.75
2022-12-01T19:57:16.187Z,4.71
2022-12-01T19:59:42.407Z,4.67
2022-12-01T20:02:08.650Z,4.69
2022-12-01T20:04:34.922Z,4.68
2022-12-01T20:07:01.163Z,4.70
2022-12-01T20:09:27.354Z,4.71
2022-12-01T20:11:53.486Z,4.68
2022-12-01T20:14:19.637Z,4.70
2022-12-01T20:16:45.846Z,4.67
2022-12-01T20:19:12.081Z,4.71
2022-12-01T20:21:38.283Z,4.71
2022-12-01T20:24:04.450Z,4.68
2022-12-01T20:26:31.051Z,4.67
2022-12-01T20:28:57.270Z,4.64
2022-12-01T20:31:23.491Z,4.61
2022-12-01T20:33:49.767Z,4.59
2022-12-01T20:36:15.967Z,4.60
2022-12-01T20:38:42.135Z,4.58
2022-12-01T20:41:08.327Z,4.56
2022-12-01T20:43:34.502Z,4.54
2022-12-01T20:46:00.728Z,4.56
2022-12-01T20:48:27.000Z,4.56
2022-12-01T20:50:53.156Z,4.53
2022-12-01T20:53:19.334Z,4.55
2022-12-01T20:55:45.562Z,4.58
2022-12-01T20:58:11.719Z,4.52
2022-12-01T21:00:38.060Z,4.52
2022-12-01T21:03:04.249Z,4.49
2022-12-01T21:05:30.434Z,4.54
2022-12-01T21:07:56.698Z,4.48
2022-12-01T21:10:22.988Z,4.47
2022-12-01T21:12:49.170Z,4.48
2022-12-01T21:15:15.308Z,4.51
2022-12-01T21:17:41.539Z,4.46
2022-12-01T21:20:07.760Z,4.47
2022-12-01T21:22:34.046Z,4.47
2022-12-01T21:25:00.305Z,4.47
2022-12-01T21:27:26.523Z,4.43
2022-12-01T21:29:52.697Z,4.37
2022-12-01T21:32:18.858Z,4.37
2022-12-01T21:34:45.025Z,4.39
2022-12-01T21:37:11.138Z,4.37
2022-12-01T21:39:37.285Z,4.36
2022-12-01T21:42:03.472Z,4.38
2022-12-01T21:44:29.609Z,4.36
2022-12-01T21:46:55.829Z,4.34
2022-12-01T21:49:22.006Z,4.34
2022-12-01T21:51:48.220Z,4.31
2022-12-01T21:54:14.387Z,4.29
2022-12-01T21:56:40.566Z,4.32
2022-12-01T21:59:06.736Z,4.30
2022-12-01T22:01:33.011Z,4.27
2022-12-01T22:04:02.455Z,4.26
2022-12-01T22:06:30.355Z,4.24
2022-12-01T22:08:58.070Z,4.25
2022-12-01T22:11:24.277Z,4.22
2022-12-01T22:13:50.416Z,4.21
2022-12-01T22:16:16.631Z,4.21
2022-12-01T22:18:42.851Z,4.18
2022-12-01T22:21:09.068Z,4.21
2022-12-01T22:23:35.211Z,4.20
2022-12-01T22:26:01.365Z,4.18
2022-12-01T22:28:27.710Z,4.18
2022-12-01T22:30:53.955Z,4.17
2022-12-01T22:33:20.150Z,4.20
2022-12-01T22:35:46.302Z,4.18
2022-12-01T22:38:12.443Z,4.17
2022-12-01T22:40:38.593Z,4.21
2022-12-01T22:43:07.477Z,4.20
2022-12-01T22:45:37.229Z,4.15
2022-12-01T22:48:03.401Z,4.12
2022-12-01T22:50:29.517Z,4.08
2022-12-01T22:52:55.849Z,4.11
2022-12-01T22:55:21.991Z,4.07
2022-12-01T22:57:48.215Z,4.10
2022-12-01T23:00:14.390Z,4.07
2022-12-01T23:02:40.639Z,4.05
2022-12-01T23:05:06.798Z,4.03
2022-12-01T23:07:33.018Z,4.02
2022-12-01T23:09:59.246Z,4.01
2022-12-01T23:12:25.389Z,3.98
2022-12-01T23:14:51.808Z,4.01
2022-12-01T23:17:18.157Z,3.98
2022-12-01T23:19:44.318Z,4.01
2022-12-01T23:22:10.506Z,4.07
2022-12-01T23:24:36.639Z,4.00
2022-12-01T23:27:02.825Z,4.00
2022-12-01T23:29:29.120Z,3.96
2022-12-01T23:31:55.361Z,3.94
2022-12-01T23:34:21.621Z,3.96
2022-12-01T23:36:47.802Z,3.92
2022-12-01T23:39:14.006Z,3.98
2022-12-01T23:41:40.175Z,3.99
2022-12-01T23:44:06.352Z,3.98
2022-12-01T23:46:32.660Z,3.97
2022-12-01T23:48:58.860Z,3.72
2022-12-01T23:51:24.998Z,3.92
2022-12-01T23:53:51.172Z,3.93
2022-12-01T23:56:17.303Z,3.89
2022-12-01T23:58:43.425Z,3.94
